sensor_id;sensor_type;location;lat;lon;timestamp;P1;durP1;ratioP1;P2;durP2;ratioP2
63093;SDS011;49183;51.380;0.098;2023-05-10T05:43:27;4.80;;;3.60;;
63093;SDS011;49183;51.380;0.098;2023-05-10T05:45:55;10.98;;;4.13;;
63093;SDS011;49183;51.380;0.098;2023-05-10T05:48:25;10.90;;;4.03;;
63093;SDS011;49183;51.380;0.098;2023-05-10T05:50:56;8.27;;;3.13;;
63093;SDS011;49183;51.380;0.098;2023-05-10T05:53:23;8.07;;;3.30;;
63093;SDS011;49183;51.380;0.098;2023-05-10T05:55:55;8.15;;;3.75;;
63093;SDS011;49183;51.380;0.098;2023-05-10T05:58:25;7.72;;;3.85;;
63093;SDS011;49183;51.380;0.098;2023-05-10T06:00:52;4.18;;;2.80;;
63093;SDS011;49183;51.380;0.098;2023-05-10T06:03:21;9.73;;;4.18;;
63093;SDS011;49183;51.380;0.098;2023-05-10T06:05:49;7.47;;;3.38;;
63093;SDS011;49183;51.380;0.098;2023-05-10T06:08:16;6.00;;;3.03;;
63093;SDS011;49183;51.380;0.098;2023-05-10T06:10:44;8.52;;;3.45;;
63093;SDS011;49183;51.380;0.098;2023-05-10T06:13:12;9.23;;;3.72;;
63093;SDS011;49183;51.380;0.098;2023-05-10T06:15:40;8.23;;;2.80;;
63093;SDS011;49183;51.380;0.098;2023-05-10T06:18:07;6.53;;;3.08;;
63093;SDS011;49183;51.380;0.098;2023-05-10T06:20:35;10.45;;;3.75;;
63093;SDS011;49183;51.380;0.098;2023-05-10T06:23:03;6.10;;;3.75;;
63093;SDS011;49183;51.380;0.098;2023-05-10T06:25:31;4.85;;;2.83;;
63093;SDS011;49183;51.380;0.098;2023-05-10T06:27:59;6.20;;;3.42;;
63093;SDS011;49183;51.380;0.098;2023-05-10T06:30:27;4.80;;;2.72;;
63093;SDS011;49183;51.380;0.098;2023-05-10T06:32:56;3.30;;;2.15;;
63093;SDS011;49183;51.380;0.098;2023-05-10T06:35:24;2.70;;;2.45;;
63093;SDS011;49183;51.380;0.098;2023-05-10T06:37:52;8.25;;;2.85;;
63093;SDS011;49183;51.380;0.098;2023-05-10T06:40:19;3.78;;;2.15;;
63093;SDS011;49183;51.380;0.098;2023-05-10T06:42:47;7.78;;;2.80;;
63093;SDS011;49183;51.380;0.098;2023-05-10T06:45:15;4.25;;;2.20;;
63093;SDS011;49183;51.380;0.098;2023-05-10T06:47:43;16.65;;;3.50;;
63093;SDS011;49183;51.380;0.098;2023-05-10T06:50:11;6.78;;;2.67;;
63093;SDS011;49183;51.380;0.098;2023-05-10T06:52:39;6.25;;;2.42;;
63093;SDS011;49183;51.380;0.098;2023-05-10T06:55:07;8.15;;;2.20;;
63093;SDS011;49183;51.380;0.098;2023-05-10T06:57:35;4.68;;;2.00;;
63093;SDS011;49183;51.380;0.098;2023-05-10T07:00:03;7.38;;;2.05;;
63093;SDS011;49183;51.380;0.098;2023-05-10T07:02:32;5.35;;;2.03;;
63093;SDS011;49183;51.380;0.098;2023-05-10T07:05:00;5.55;;;2.22;;
63093;SDS011;49183;51.380;0.098;2023-05-10T07:07:29;13.77;;;1.52;;
63093;SDS011;49183;51.380;0.098;2023-05-10T07:09:57;4.35;;;2.28;;
63093;SDS011;49183;51.380;0.098;2023-05-10T07:12:25;4.18;;;1.52;;
63093;SDS011;49183;51.380;0.098;2023-05-10T07:14:53;4.07;;;1.50;;
63093;SDS011;49183;51.380;0.098;2023-05-10T07:17:20;2.80;;;1.73;;
63093;SDS011;49183;51.380;0.098;2023-05-10T07:19:48;3.17;;;1.30;;
63093;SDS011;49183;51.380;0.098;2023-05-10T07:22:16;7.57;;;1.57;;
63093;SDS011;49183;51.380;0.098;2023-05-10T07:24:44;6.85;;;2.40;;
63093;SDS011;49183;51.380;0.098;2023-05-10T07:27:12;3.25;;;1.35;;
63093;SDS011;49183;51.380;0.098;2023-05-10T07:29:40;2.78;;;1.52;;
63093;SDS011;49183;51.380;0.098;2023-05-10T07:32:07;4.72;;;1.90;;
63093;SDS011;49183;51.380;0.098;2023-05-10T07:34:35;3.42;;;1.30;;
63093;SDS011;49183;51.380;0.098;2023-05-10T07:37:03;2.58;;;1.30;;
63093;SDS011;49183;51.380;0.098;2023-05-10T07:39:31;3.50;;;1.20;;
63093;SDS011;49183;51.380;0.098;2023-05-10T07:41:58;3.85;;;2.13;;
63093;SDS011;49183;51.380;0.098;2023-05-10T07:44:26;6.68;;;2.35;;
63093;SDS011;49183;51.380;0.098;2023-05-10T07:46:53;4.05;;;1.80;;
63093;SDS011;49183;51.380;0.098;2023-05-10T07:49:22;4.07;;;1.63;;
63093;SDS011;49183;51.380;0.098;2023-05-10T07:51:52;5.30;;;1.63;;
63093;SDS011;49183;51.380;0.098;2023-05-10T07:54:20;5.80;;;1.40;;
63093;SDS011;49183;51.380;0.098;2023-05-10T07:56:48;6.93;;;1.97;;
63093;SDS011;49183;51.380;0.098;2023-05-10T07:59:16;2.70;;;1.30;;
63093;SDS011;49183;51.380;0.098;2023-05-10T08:01:44;5.75;;;1.42;;
63093;SDS011;49183;51.380;0.098;2023-05-10T08:04:12;1.92;;;1.10;;
63093;SDS011;49183;51.380;0.098;2023-05-10T08:06:40;1.67;;;1.25;;
63093;SDS011;49183;51.380;0.098;2023-05-10T08:09:08;3.80;;;1.33;;
63093;SDS011;49183;51.380;0.098;2023-05-10T08:11:35;4.03;;;1.63;;
63093;SDS011;49183;51.380;0.098;2023-05-10T08:14:03;3.13;;;1.30;;
63093;SDS011;49183;51.380;0.098;2023-05-10T08:16:31;5.13;;;1.23;;
63093;SDS011;49183;51.380;0.098;2023-05-10T08:18:59;4.28;;;1.83;;
63093;SDS011;49183;51.380;0.098;2023-05-10T08:21:27;4.90;;;1.73;;
63093;SDS011;49183;51.380;0.098;2023-05-10T08:23:55;9.13;;;1.90;;
63093;SDS011;49183;51.380;0.098;2023-05-10T08:26:22;5.28;;;2.25;;
63093;SDS011;49183;51.380;0.098;2023-05-10T08:28:50;6.82;;;1.60;;
63093;SDS011;49183;51.380;0.098;2023-05-10T08:31:18;5.90;;;2.63;;
63093;SDS011;49183;51.380;0.098;2023-05-10T08:33:46;4.53;;;1.52;;
63093;SDS011;49183;51.380;0.098;2023-05-10T08:36:13;4.45;;;1.98;;
63093;SDS011;49183;51.380;0.098;2023-05-10T08:38:50;3.70;;;1.77;;
63093;SDS011;49183;51.380;0.098;2023-05-10T08:41:19;6.57;;;2.35;;
63093;SDS011;49183;51.380;0.098;2023-05-10T08:43:52;4.18;;;1.50;;
63093;SDS011;49183;51.380;0.098;2023-05-10T08:54:59;4.28;;;1.90;;
63093;SDS011;49183;51.380;0.098;2023-05-10T09:01:24;4.55;;;1.88;;
63093;SDS011;49183;51.380;0.098;2023-05-10T09:03:53;4.55;;;1.98;;
63093;SDS011;49183;51.380;0.098;2023-05-10T09:06:22;3.58;;;1.95;;
63093;SDS011;49183;51.380;0.098;2023-05-10T09:08:50;6.85;;;2.30;;
63093;SDS011;49183;51.380;0.098;2023-05-10T09:11:19;4.90;;;2.58;;
63093;SDS011;49183;51.380;0.098;2023-05-10T09:13:48;6.18;;;1.77;;
63093;SDS011;49183;51.380;0.098;2023-05-10T09:16:17;2.45;;;1.90;;
63093;SDS011;49183;51.380;0.098;2023-05-10T09:18:48;2.40;;;1.67;;
63093;SDS011;49183;51.380;0.098;2023-05-10T09:21:16;6.38;;;1.73;;
63093;SDS011;49183;51.380;0.098;2023-05-10T09:23:46;3.38;;;1.95;;
63093;SDS011;49183;51.380;0.098;2023-05-10T09:26:17;2.85;;;1.65;;
63093;SDS011;49183;51.380;0.098;2023-05-10T09:28:59;1.92;;;1.27;;
63093;SDS011;49183;51.380;0.098;2023-05-10T09:31:43;2.22;;;1.58;;
63093;SDS011;49183;51.380;0.098;2023-05-10T09:34:15;2.25;;;1.38;;
63093;SDS011;49183;51.380;0.098;2023-05-10T09:36:55;6.55;;;1.52;;
63093;SDS011;49183;51.380;0.098;2023-05-10T09:39:37;6.13;;;1.90;;
63093;SDS011;49183;51.380;0.098;2023-05-10T09:42:06;1.92;;;1.00;;
63093;SDS011;49183;51.380;0.098;2023-05-10T09:44:37;4.32;;;1.27;;
63093;SDS011;49183;51.380;0.098;2023-05-10T09:47:05;4.38;;;1.10;;
63093;SDS011;49183;51.380;0.098;2023-05-10T09:49:32;2.38;;;1.15;;
63093;SDS011;49183;51.380;0.098;2023-05-10T09:52:03;4.72;;;1.48;;
63093;SDS011;49183;51.380;0.098;2023-05-10T09:54:32;2.85;;;1.10;;
63093;SDS011;49183;51.380;0.098;2023-05-10T09:57:00;3.92;;;0.88;;
63093;SDS011;49183;51.380;0.098;2023-05-10T09:59:29;3.80;;;1.75;;
63093;SDS011;49183;51.380;0.098;2023-05-10T10:01:57;3.60;;;1.10;;
63093;SDS011;49183;51.380;0.098;2023-05-10T10:04:26;2.35;;;0.90;;
63093;SDS011;49183;51.380;0.098;2023-05-10T10:06:58;6.00;;;0.95;;
63093;SDS011;49183;51.380;0.098;2023-05-10T10:09:31;2.78;;;0.82;;
63093;SDS011;49183;51.380;0.098;2023-05-10T10:11:59;2.45;;;1.48;;
63093;SDS011;49183;51.380;0.098;2023-05-10T10:14:31;0.95;;;0.50;;
63093;SDS011;49183;51.380;0.098;2023-05-10T10:17:00;1.52;;;0.75;;
63093;SDS011;49183;51.380;0.098;2023-05-10T10:19:34;4.00;;;1.20;;
63093;SDS011;49183;51.380;0.098;2023-05-10T10:24:31;2.58;;;1.20;;
63093;SDS011;49183;51.380;0.098;2023-05-10T10:27:08;3.03;;;1.07;;
63093;SDS011;49183;51.380;0.098;2023-05-10T10:32:49;2.03;;;0.82;;
63093;SDS011;49183;51.380;0.098;2023-05-10T10:35:21;4.70;;;1.13;;
63093;SDS011;49183;51.380;0.098;2023-05-10T10:37:52;1.10;;;0.65;;
63093;SDS011;49183;51.380;0.098;2023-05-10T10:40:30;1.75;;;1.05;;
63093;SDS011;49183;51.380;0.098;2023-05-10T10:48:37;0.65;;;0.50;;
63093;SDS011;49183;51.380;0.098;2023-05-10T10:51:04;0.95;;;0.45;;
63093;SDS011;49183;51.380;0.098;2023-05-10T10:53:32;1.02;;;0.93;;
63093;SDS011;49183;51.380;0.098;2023-05-10T10:56:07;1.45;;;0.60;;
63093;SDS011;49183;51.380;0.098;2023-05-10T10:58:37;4.07;;;0.85;;
63093;SDS011;49183;51.380;0.098;2023-05-10T11:01:13;0.95;;;0.70;;
63093;SDS011;49183;51.380;0.098;2023-05-10T11:04:28;2.65;;;0.80;;
63093;SDS011;49183;51.380;0.098;2023-05-10T11:06:34;1.50;;;0.63;;
63093;SDS011;49183;51.380;0.098;2023-05-10T11:09:10;3.45;;;0.90;;
63093;SDS011;49183;51.380;0.098;2023-05-10T11:11:56;1.98;;;0.75;;
63093;SDS011;49183;51.380;0.098;2023-05-10T11:14:26;1.50;;;0.57;;
63093;SDS011;49183;51.380;0.098;2023-05-10T11:16:54;1.13;;;0.75;;
63093;SDS011;49183;51.380;0.098;2023-05-10T11:19:22;3.47;;;0.90;;
63093;SDS011;49183;51.380;0.098;2023-05-10T11:24:56;1.60;;;1.00;;
63093;SDS011;49183;51.380;0.098;2023-05-10T11:41:02;2.40;;;0.80;;
63093;SDS011;49183;51.380;0.098;2023-05-10T11:47:07;0.80;;;0.57;;
63093;SDS011;49183;51.380;0.098;2023-05-10T11:49:39;2.25;;;0.90;;
63093;SDS011;49183;51.380;0.098;2023-05-10T11:52:11;2.33;;;1.00;;
63093;SDS011;49183;51.380;0.098;2023-05-10T11:54:54;2.60;;;0.70;;
63093;SDS011;49183;51.380;0.098;2023-05-10T11:57:25;1.40;;;0.63;;
63093;SDS011;49183;51.380;0.098;2023-05-10T11:59:58;1.58;;;0.60;;
63093;SDS011;49183;51.380;0.098;2023-05-10T12:02:26;1.73;;;0.60;;
63093;SDS011;49183;51.380;0.098;2023-05-10T12:04:54;2.40;;;0.75;;
63093;SDS011;49183;51.380;0.098;2023-05-10T12:07:23;3.78;;;0.63;;
63093;SDS011;49183;51.380;0.098;2023-05-10T12:10:04;2.60;;;0.60;;
63093;SDS011;49183;51.380;0.098;2023-05-10T12:12:52;2.60;;;0.73;;
63093;SDS011;49183;51.380;0.098;2023-05-10T12:15:21;0.63;;;0.43;;
63093;SDS011;49183;51.380;0.098;2023-05-10T12:17:50;2.10;;;0.50;;
63093;SDS011;49183;51.380;0.098;2023-05-10T12:20:22;1.30;;;0.55;;
63093;SDS011;49183;51.380;0.098;2023-05-10T12:27:51;1.60;;;0.60;;
63093;SDS011;49183;51.380;0.098;2023-05-10T12:30:24;1.17;;;0.50;;
63093;SDS011;49183;51.380;0.098;2023-05-10T12:32:54;1.13;;;0.80;;
63093;SDS011;49183;51.380;0.098;2023-05-10T12:35:38;0.65;;;0.50;;
63093;SDS011;49183;51.380;0.098;2023-05-10T12:41:28;2.47;;;0.90;;
63093;SDS011;49183;51.380;0.098;2023-05-10T12:43:56;3.33;;;1.40;;
63093;SDS011;49183;51.380;0.098;2023-05-10T12:46:23;1.00;;;0.80;;
63093;SDS011;49183;51.380;0.098;2023-05-10T12:48:54;1.40;;;0.93;;
63093;SDS011;49183;51.380;0.098;2023-05-10T12:51:34;0.98;;;0.52;;
63093;SDS011;49183;51.380;0.098;2023-05-10T12:54:02;2.67;;;0.90;;
63093;SDS011;49183;51.380;0.098;2023-05-10T12:56:30;1.77;;;0.60;;
63093;SDS011;49183;51.380;0.098;2023-05-10T12:58:58;1.45;;;0.82;;
63093;SDS011;49183;51.380;0.098;2023-05-10T13:01:26;2.30;;;1.00;;
63093;SDS011;49183;51.380;0.098;2023-05-10T13:03:53;0.80;;;0.80;;
63093;SDS011;49183;51.380;0.098;2023-05-10T13:09:52;1.42;;;1.13;;
63093;SDS011;49183;51.380;0.098;2023-05-10T13:12:20;2.20;;;1.30;;
63093;SDS011;49183;51.380;0.098;2023-05-10T13:14:47;1.75;;;1.15;;
63093;SDS011;49183;51.380;0.098;2023-05-10T13:28:08;1.02;;;0.80;;
63093;SDS011;49183;51.380;0.098;2023-05-10T13:30:36;1.30;;;0.98;;
63093;SDS011;49183;51.380;0.098;2023-05-10T15:27:05;3.45;;;1.88;;
63093;SDS011;49183;51.380;0.098;2023-05-10T15:29:33;2.15;;;1.50;;
63093;SDS011;49183;51.380;0.098;2023-05-10T15:32:01;3.47;;;1.40;;
63093;SDS011;49183;51.380;0.098;2023-05-10T15:34:29;1.52;;;1.42;;
63093;SDS011;49183;51.380;0.098;2023-05-10T15:44:12;2.90;;;1.95;;
63093;SDS011;49183;51.380;0.098;2023-05-10T15:46:40;1.85;;;1.60;;
63093;SDS011;49183;51.380;0.098;2023-05-10T15:49:08;3.50;;;1.30;;
63093;SDS011;49183;51.380;0.098;2023-05-10T15:51:35;1.48;;;1.10;;
63093;SDS011;49183;51.380;0.098;2023-05-10T15:54:03;2.20;;;1.17;;
63093;SDS011;49183;51.380;0.098;2023-05-10T15:56:34;2.40;;;1.10;;
63093;SDS011;49183;51.380;0.098;2023-05-10T15:59:02;2.90;;;1.23;;
63093;SDS011;49183;51.380;0.098;2023-05-10T16:01:31;1.05;;;0.90;;
63093;SDS011;49183;51.380;0.098;2023-05-10T16:03:59;1.33;;;1.10;;
63093;SDS011;49183;51.380;0.098;2023-05-10T16:06:27;1.70;;;1.20;;
63093;SDS011;49183;51.380;0.098;2023-05-10T16:08:55;1.95;;;1.40;;
63093;SDS011;49183;51.380;0.098;2023-05-10T16:11:23;1.45;;;1.05;;
63093;SDS011;49183;51.380;0.098;2023-05-10T16:13:51;2.08;;;1.00;;
63093;SDS011;49183;51.380;0.098;2023-05-10T16:16:18;1.63;;;1.45;;
63093;SDS011;49183;51.380;0.098;2023-05-10T16:18:46;1.40;;;1.30;;
63093;SDS011;49183;51.380;0.098;2023-05-10T16:21:14;1.88;;;1.48;;
63093;SDS011;49183;51.380;0.098;2023-05-10T16:23:41;4.82;;;1.77;;
63093;SDS011;49183;51.380;0.098;2023-05-10T16:26:12;1.60;;;1.30;;
63093;SDS011;49183;51.380;0.098;2023-05-10T16:28:39;2.80;;;1.98;;
63093;SDS011;49183;51.380;0.098;2023-05-10T16:31:07;3.00;;;1.70;;
63093;SDS011;49183;51.380;0.098;2023-05-10T16:33:35;2.67;;;2.40;;
63093;SDS011;49183;51.380;0.098;2023-05-10T16:36:03;2.88;;;1.70;;
63093;SDS011;49183;51.380;0.098;2023-05-10T16:41:02;2.90;;;2.10;;
63093;SDS011;49183;51.380;0.098;2023-05-10T16:43:31;2.38;;;1.80;;
63093;SDS011;49183;51.380;0.098;2023-05-10T16:45:58;1.58;;;1.42;;
63093;SDS011;49183;51.380;0.098;2023-05-10T16:48:26;3.38;;;1.65;;
63093;SDS011;49183;51.380;0.098;2023-05-10T16:50:54;1.67;;;1.55;;
63093;SDS011;49183;51.380;0.098;2023-05-10T16:53:21;4.65;;;1.50;;
63093;SDS011;49183;51.380;0.098;2023-05-10T16:55:49;2.67;;;1.63;;
63093;SDS011;49183;51.380;0.098;2023-05-10T16:58:17;2.65;;;1.95;;
63093;SDS011;49183;51.380;0.098;2023-05-10T17:00:44;2.22;;;1.63;;
63093;SDS011;49183;51.380;0.098;2023-05-10T17:03:12;2.27;;;1.70;;
63093;SDS011;49183;51.380;0.098;2023-05-10T17:05:40;3.90;;;1.48;;
63093;SDS011;49183;51.380;0.098;2023-05-10T17:08:09;2.30;;;1.70;;
63093;SDS011;49183;51.380;0.098;2023-05-10T17:10:39;1.90;;;1.50;;
63093;SDS011;49183;51.380;0.098;2023-05-10T17:13:07;4.60;;;1.50;;
63093;SDS011;49183;51.380;0.098;2023-05-10T17:15:36;2.38;;;1.40;;
63093;SDS011;49183;51.380;0.098;2023-05-10T17:18:05;3.17;;;1.40;;
63093;SDS011;49183;51.380;0.098;2023-05-10T17:20:33;1.80;;;1.20;;
63093;SDS011;49183;51.380;0.098;2023-05-10T17:23:01;1.38;;;1.02;;
63093;SDS011;49183;51.380;0.098;2023-05-10T17:25:29;1.55;;;1.10;;
63093;SDS011;49183;51.380;0.098;2023-05-10T17:27:57;1.50;;;1.02;;
63093;SDS011;49183;51.380;0.098;2023-05-10T17:30:24;2.78;;;1.35;;
63093;SDS011;49183;51.380;0.098;2023-05-10T17:32:56;0.93;;;0.85;;
63093;SDS011;49183;51.380;0.098;2023-05-10T17:35:24;2.92;;;0.90;;
63093;SDS011;49183;51.380;0.098;2023-05-10T17:37:53;3.25;;;1.10;;
63093;SDS011;49183;51.380;0.098;2023-05-10T17:40:21;0.93;;;0.70;;
63093;SDS011;49183;51.380;0.098;2023-05-10T17:42:48;1.13;;;0.82;;
63093;SDS011;49183;51.380;0.098;2023-05-10T17:45:16;1.20;;;0.98;;
63093;SDS011;49183;51.380;0.098;2023-05-10T17:47:44;1.15;;;0.88;;
63093;SDS011;49183;51.380;0.098;2023-05-10T17:53:53;2.15;;;0.93;;
63093;SDS011;49183;51.380;0.098;2023-05-10T17:56:21;2.55;;;1.17;;
63093;SDS011;49183;51.380;0.098;2023-05-10T17:58:48;2.47;;;1.17;;
63093;SDS011;49183;51.380;0.098;2023-05-10T18:01:17;3.17;;;1.00;;
63093;SDS011;49183;51.380;0.098;2023-05-10T18:07:15;1.60;;;1.10;;
63093;SDS011;49183;51.380;0.098;2023-05-10T18:13:14;3.30;;;1.10;;
63093;SDS011;49183;51.380;0.098;2023-05-10T18:15:42;1.23;;;0.97;;
63093;SDS011;49183;51.380;0.098;2023-05-10T18:18:10;1.40;;;1.10;;
63093;SDS011;49183;51.380;0.098;2023-05-10T18:20:38;1.88;;;1.20;;
63093;SDS011;49183;51.380;0.098;2023-05-10T18:23:06;1.30;;;1.17;;
63093;SDS011;49183;51.380;0.098;2023-05-10T18:40:07;0.90;;;0.80;;
63093;SDS011;49183;51.380;0.098;2023-05-10T23:33:34;3.25;;;2.05;;
